createdAt,value
2019-04-26T00:00:46.997Z,17.60
2019-04-26T00:03:34.235Z,17.60
2019-04-26T00:06:10.872Z,17.50
2019-04-26T00:08:47.572Z,17.60
2019-04-26T00:11:41.819Z,17.60
2019-04-26T00:14:36.809Z,17.50
2019-04-26T00:17:23.351Z,17.50
2019-04-26T00:19:59.886Z,17.50
2019-04-26T00:22:33.814Z,17.40
2019-04-26T00:25:12.682Z,17.30
2019-04-26T00:27:47.504Z,17.30
2019-04-26T00:30:21.618Z,17.30
2019-04-26T00:32:57.294Z,17.20
2019-04-26T00:35:31.094Z,17.20
2019-04-26T00:38:04.733Z,17.20
2019-04-26T00:40:39.131Z,17.20
2019-04-26T00:43:14.212Z,17.20
2019-04-26T00:45:50.451Z,17.20
2019-04-26T00:48:27.290Z,17.20
2019-04-26T00:51:03.014Z,17.20
2019-04-26T00:53:37.892Z,17.20
2019-04-26T00:56:11.998Z,17.10
2019-04-26T00:58:48.889Z,17.10
2019-04-26T01:01:26.453Z,17.00
2019-04-26T01:03:59.710Z,16.90
2019-04-26T01:06:36.372Z,16.90
2019-04-26T01:09:10.192Z,16.90
2019-04-26T01:11:46.132Z,17.00
2019-04-26T01:14:24.246Z,17.00
2019-04-26T01:16:59.946Z,17.00
2019-04-26T01:19:34.329Z,16.90
2019-04-26T01:22:13.450Z,16.90
2019-04-26T01:24:48.872Z,16.80
2019-04-26T01:27:25.789Z,16.90
2019-04-26T01:30:04.046Z,16.90
2019-04-26T01:32:41.462Z,16.90
2019-04-26T01:38:16.644Z,16.80
2019-04-26T01:40:52.574Z,16.80
2019-04-26T01:43:56.473Z,16.80
2019-04-26T01:46:38.144Z,16.70
2019-04-26T01:49:15.466Z,16.80
2019-04-26T01:52:06.038Z,16.90
2019-04-26T01:54:44.036Z,16.90
2019-04-26T01:57:18.474Z,16.80
2019-04-26T01:59:56.696Z,16.70
2019-04-26T02:02:51.142Z,16.70
2019-04-26T02:05:28.008Z,16.70
2019-04-26T02:08:01.355Z,16.70
2019-04-26T02:10:35.255Z,16.70
2019-04-26T02:13:08.661Z,16.60
2019-04-26T02:15:41.821Z,16.70
2019-04-26T02:18:15.138Z,16.70
2019-04-26T02:20:59.031Z,16.60
2019-04-26T02:23:39.871Z,16.60
2019-04-26T02:26:34.923Z,16.60
2019-04-26T02:29:12.862Z,16.60
2019-04-26T02:32:10.028Z,16.60
2019-04-26T02:34:43.771Z,16.60
2019-04-26T02:37:18.823Z,16.60
2019-04-26T02:39:53.715Z,16.60
2019-04-26T02:42:38.090Z,16.60
2019-04-26T02:45:55.963Z,16.50
2019-04-26T02:49:14.829Z,16.60
2019-04-26T02:52:13.501Z,16.60
2019-04-26T02:54:59.255Z,16.50
2019-04-26T02:58:01.392Z,16.60
2019-04-26T03:00:37.304Z,16.50
2019-04-26T03:03:12.647Z,16.50
2019-04-26T03:05:47.994Z,16.50
2019-04-26T03:08:24.549Z,16.50
2019-04-26T03:11:11.343Z,16.40
2019-04-26T03:14:06.702Z,16.40
2019-04-26T03:17:03.044Z,16.40
2019-04-26T03:19:52.846Z,16.40
2019-04-26T03:22:39.502Z,16.50
2019-04-26T03:25:24.784Z,16.50
2019-04-26T03:28:23.451Z,16.40
2019-04-26T03:31:22.273Z,16.40
2019-04-26T03:34:42.317Z,16.40
2019-04-26T03:37:55.437Z,16.40
2019-04-26T03:40:57.600Z,16.30
2019-04-26T03:43:54.321Z,16.40
2019-04-26T03:46:45.154Z,16.40
2019-04-26T03:50:04.213Z,16.50
2019-04-26T03:53:13.661Z,16.40
2019-04-26T03:56:52.991Z,16.40
2019-04-26T03:59:59.629Z,16.40
2019-04-26T04:02:56.335Z,16.40
2019-04-26T04:05:46.034Z,16.40
2019-04-26T04:08:46.529Z,16.40
2019-04-26T04:11:25.334Z,16.40
2019-04-26T04:14:12.111Z,16.30
2019-04-26T04:17:12.596Z,16.40
2019-04-26T04:20:29.190Z,16.50
2019-04-26T04:23:35.370Z,16.50
2019-04-26T04:26:11.992Z,16.40
2019-04-26T04:29:09.606Z,16.40
2019-04-26T04:31:48.104Z,16.40
2019-04-26T04:34:40.058Z,16.40
2019-04-26T04:37:18.150Z,16.40
2019-04-26T04:40:15.144Z,16.50
2019-04-26T04:43:42.154Z,16.50
2019-04-26T04:47:31.103Z,16.60
2019-04-26T04:50:43.348Z,16.70
2019-04-26T04:53:52.641Z,16.80
2019-04-26T04:57:05.826Z,16.90
2019-04-26T05:00:36.933Z,17.00
2019-04-26T05:03:29.361Z,17.10
2019-04-26T05:06:23.317Z,17.20
2019-04-26T05:09:11.636Z,17.20
2019-04-26T05:12:25.827Z,17.30
2019-04-26T05:15:39.222Z,17.40
2019-04-26T05:18:51.129Z,17.50
2019-04-26T05:21:39.072Z,17.60
2019-04-26T05:24:29.954Z,17.70
2019-04-26T05:27:48.359Z,17.80
2019-04-26T05:31:11.241Z,17.90
2019-04-26T05:34:28.300Z,18.00
2019-04-26T05:37:46.726Z,18.00
2019-04-26T05:41:02.235Z,18.00
2019-04-26T05:44:02.296Z,18.10
2019-04-26T05:47:15.631Z,18.20
2019-04-26T05:50:47.504Z,18.30
2019-04-26T05:54:02.603Z,18.30
2019-04-26T05:57:08.001Z,18.40
2019-04-26T06:00:39.487Z,18.50
2019-04-26T06:03:50.870Z,18.60
2019-04-26T06:06:38.118Z,18.60
2019-04-26T06:10:18.492Z,18.70
2019-04-26T06:13:12.269Z,18.80
2019-04-26T06:16:02.487Z,18.90
2019-04-26T06:19:18.430Z,19.00
2019-04-26T06:22:20.415Z,19.00
2019-04-26T06:25:29.786Z,19.10
2019-04-26T06:28:11.707Z,19.20
2019-04-26T06:31:07.950Z,19.30
2019-04-26T06:34:20.800Z,19.30
2019-04-26T06:37:19.945Z,19.40
2019-04-26T06:40:10.837Z,19.50
2019-04-26T06:43:36.757Z,19.50
2019-04-26T06:47:13.078Z,19.70
2019-04-26T06:50:44.047Z,19.70
2019-04-26T06:53:37.729Z,19.90
2019-04-26T06:56:53.845Z,20.00
2019-04-26T07:15:08.017Z,20.50
2019-04-26T07:22:35.797Z,20.60
2019-04-26T07:26:10.558Z,20.70
2019-04-26T07:33:25.175Z,20.90
2019-04-26T07:36:28.230Z,21.00
2019-04-26T07:40:09.221Z,21.10
2019-04-26T07:43:43.019Z,21.20
2019-04-26T07:50:56.664Z,21.40
2019-04-26T07:53:52.025Z,21.50
2019-04-26T07:57:40.721Z,21.70
2019-04-26T08:00:44.606Z,21.70
2019-04-26T08:10:38.051Z,22.00
2019-04-26T08:13:15.321Z,22.00
2019-04-26T08:16:26.496Z,22.10
2019-04-26T08:23:09.039Z,22.30
2019-04-26T08:25:46.875Z,22.50
2019-04-26T08:29:06.521Z,22.60
2019-04-26T08:31:43.154Z,22.70
2019-04-26T08:34:37.468Z,22.80
2019-04-26T08:40:42.626Z,22.90
2019-04-26T08:47:53.475Z,23.00
2019-04-26T08:50:34.084Z,23.10
2019-04-26T08:53:18.716Z,23.10
2019-04-26T08:56:26.360Z,23.30
2019-04-26T08:59:05.303Z,23.30
2019-04-26T09:01:53.575Z,23.40
2019-04-26T09:04:58.412Z,23.50
2019-04-26T09:07:36.443Z,23.60
2019-04-26T09:10:15.164Z,23.70
2019-04-26T09:12:51.629Z,23.80
2019-04-26T09:15:50.825Z,23.90
2019-04-26T09:18:24.853Z,24.00
2019-04-26T09:20:59.252Z,24.10
2019-04-26T09:23:52.175Z,24.20
2019-04-26T09:30:42.412Z,24.30
2019-04-26T09:33:31.687Z,24.40
2019-04-26T09:40:21.574Z,24.40
2019-04-26T09:44:01.979Z,24.40
2019-04-26T09:50:53.624Z,24.70
2019-04-26T09:54:09.735Z,24.70
2019-04-26T09:56:53.532Z,24.80
2019-04-26T09:59:48.844Z,24.90
2019-04-26T10:02:33.905Z,24.90
2019-04-26T10:05:23.605Z,25.10
2019-04-26T10:08:18.299Z,25.10
2019-04-26T10:10:58.022Z,25.20
2019-04-26T10:17:35.143Z,25.30
2019-04-26T10:20:19.777Z,25.30
2019-04-26T10:23:50.664Z,25.30
2019-04-26T10:26:55.339Z,25.20
2019-04-26T10:30:10.001Z,25.30
2019-04-26T10:33:08.573Z,25.30
2019-04-26T10:36:26.224Z,25.40
2019-04-26T10:39:57.102Z,25.70
2019-04-26T10:42:39.175Z,25.80
2019-04-26T10:46:12.873Z,25.90
2019-04-26T10:49:32.728Z,26.00
2019-04-26T10:59:33.613Z,26.00
2019-04-26T11:02:55.118Z,26.00
2019-04-26T11:05:43.593Z,25.90
2019-04-26T11:08:17.379Z,25.80
2019-04-26T11:14:41.876Z,25.90
2019-04-26T11:17:53.588Z,26.10
2019-04-26T11:24:34.230Z,26.30
2019-04-26T11:27:11.162Z,26.40
2019-04-26T11:29:53.730Z,26.40
2019-04-26T11:33:22.609Z,26.40
2019-04-26T11:36:37.621Z,26.40
2019-04-26T11:39:30.157Z,26.50
2019-04-26T11:42:04.475Z,26.70
2019-04-26T11:44:40.061Z,27.00
2019-04-26T11:51:10.113Z,27.10
2019-04-26T11:53:47.310Z,27.00
2019-04-26T11:56:28.260Z,26.90
2019-04-26T11:59:02.855Z,27.00
2019-04-26T12:01:40.369Z,26.90
2019-04-26T12:04:40.664Z,27.00
2019-04-26T12:07:27.123Z,26.90
2019-04-26T12:10:05.877Z,26.90
2019-04-26T12:13:10.946Z,26.90
2019-04-26T12:16:02.643Z,26.90
2019-04-26T12:19:05.713Z,27.00
2019-04-26T12:22:54.016Z,27.10
2019-04-26T12:26:05.974Z,27.10
2019-04-26T12:28:42.692Z,27.20
2019-04-26T12:31:24.217Z,27.20
2019-04-26T12:34:18.898Z,27.30
2019-04-26T12:36:56.554Z,27.40
2019-04-26T12:39:52.507Z,27.60
2019-04-26T12:42:26.783Z,27.90
2019-04-26T12:45:23.099Z,27.80
2019-04-26T12:48:04.206Z,27.90
2019-04-26T12:51:12.060Z,28.00
2019-04-26T12:57:46.517Z,27.80
2019-04-26T13:04:55.041Z,27.90
2019-04-26T13:07:42.880Z,28.00
2019-04-26T13:13:53.815Z,28.00
2019-04-26T13:17:20.894Z,28.10
2019-04-26T13:20:28.752Z,28.10
2019-04-26T13:23:07.141Z,28.00
2019-04-26T13:25:44.276Z,28.00
2019-04-26T13:28:57.119Z,28.30
2019-04-26T13:31:55.433Z,28.20
2019-04-26T13:34:58.426Z,28.10
2019-04-26T13:37:37.022Z,27.90
2019-04-26T13:40:20.068Z,28.00
2019-04-26T13:42:53.982Z,28.00
2019-04-26T13:45:40.103Z,28.00
2019-04-26T13:48:43.559Z,27.90
2019-04-26T13:51:22.142Z,27.80
2019-04-26T13:53:56.215Z,27.60
2019-04-26T13:56:32.090Z,27.70
2019-04-26T13:59:14.882Z,27.80
2019-04-26T14:02:14.445Z,27.90
2019-04-26T14:04:48.445Z,28.00
2019-04-26T14:07:29.472Z,28.10
2019-04-26T14:10:11.124Z,28.20
2019-04-26T14:12:51.344Z,28.30
2019-04-26T14:15:51.621Z,28.30
2019-04-26T14:18:46.737Z,28.30
2019-04-26T14:21:33.196Z,28.30
2019-04-26T14:24:39.550Z,28.10
2019-04-26T14:27:45.331Z,27.90
2019-04-26T14:30:41.885Z,27.80
2019-04-26T14:33:32.323Z,27.80
2019-04-26T14:36:31.468Z,27.70
2019-04-26T14:39:10.648Z,27.50
2019-04-26T14:42:10.936Z,27.50
2019-04-26T14:44:49.682Z,27.50
2019-04-26T14:47:26.371Z,27.50
2019-04-26T14:49:59.395Z,27.50
2019-04-26T14:52:34.620Z,27.60
2019-04-26T14:55:42.131Z,27.40
2019-04-26T14:58:16.805Z,27.40
2019-04-26T15:00:55.844Z,27.30
2019-04-26T15:03:55.829Z,27.20
2019-04-26T15:06:52.020Z,27.30
2019-04-26T15:09:29.739Z,27.30
2019-04-26T15:12:02.995Z,27.10
2019-04-26T15:14:35.074Z,27.10
2019-04-26T15:17:24.853Z,27.10
2019-04-26T15:19:58.291Z,27.10
2019-04-26T15:22:33.061Z,27.20
2019-04-26T15:25:07.689Z,27.20
2019-04-26T15:27:44.234Z,27.20
2019-04-26T15:30:17.848Z,27.40
2019-04-26T15:32:57.433Z,27.40
2019-04-26T15:35:36.119Z,27.50
2019-04-26T15:38:13.411Z,27.50
2019-04-26T15:41:11.500Z,27.30
2019-04-26T15:44:02.616Z,27.50
2019-04-26T15:46:56.102Z,27.60
2019-04-26T15:49:42.936Z,27.50
2019-04-26T15:52:16.465Z,27.50
2019-04-26T15:54:53.008Z,27.50
2019-04-26T15:57:34.659Z,27.30
2019-04-26T16:00:12.708Z,27.10
2019-04-26T16:02:46.855Z,27.00
2019-04-26T16:05:24.333Z,27.20
2019-04-26T16:08:03.217Z,27.20
2019-04-26T16:10:48.113Z,27.00
2019-04-26T16:13:30.038Z,26.90
2019-04-26T16:16:10.138Z,26.60
2019-04-26T16:18:49.883Z,26.20
2019-04-26T16:21:27.113Z,26.20
2019-04-26T16:24:08.260Z,26.20
2019-04-26T16:27:05.999Z,26.00
2019-04-26T16:29:59.545Z,26.00
2019-04-26T16:39:50.174Z,25.30
2019-04-26T16:42:38.971Z,25.10
2019-04-26T16:45:18.518Z,25.00
2019-04-26T16:47:59.233Z,24.90
2019-04-26T16:50:47.776Z,24.70
2019-04-26T16:53:43.881Z,24.70
2019-04-26T16:56:07.324Z,24.60
2019-04-26T16:58:47.787Z,24.40
2019-04-26T17:01:38.090Z,24.30
2019-04-26T17:04:19.981Z,24.10
2019-04-26T17:07:01.697Z,24.00
2019-04-26T17:09:56.977Z,23.90
2019-04-26T17:12:17.066Z,23.90
2019-04-26T17:14:55.008Z,23.80
2019-04-26T17:17:45.186Z,23.70
2019-04-26T17:20:19.531Z,23.70
2019-04-26T17:23:15.896Z,23.60
2019-04-26T17:26:10.550Z,23.60
2019-04-26T17:28:47.555Z,23.50
2019-04-26T17:31:22.952Z,23.60
2019-04-26T17:33:58.473Z,23.60
2019-04-26T17:36:39.274Z,23.60
2019-04-26T17:39:32.096Z,23.60
2019-04-26T17:42:07.748Z,23.60
2019-04-26T17:44:44.992Z,23.60
2019-04-26T17:47:20.325Z,23.60
2019-04-26T17:50:01.677Z,23.60
2019-04-26T17:52:35.884Z,23.50
2019-04-26T17:55:14.932Z,23.50
2019-04-26T17:57:50.667Z,23.50
2019-04-26T18:00:45.390Z,23.50
2019-04-26T18:03:13.847Z,23.40
2019-04-26T18:05:56.826Z,23.50
2019-04-26T18:08:35.779Z,23.40
2019-04-26T18:11:03.185Z,23.40
2019-04-26T18:13:37.329Z,23.40
2019-04-26T18:16:13.762Z,23.40
2019-04-26T18:19:09.310Z,23.40
2019-04-26T18:22:16.374Z,23.30
2019-04-26T18:24:52.156Z,23.30
2019-04-26T18:27:29.897Z,23.30
2019-04-26T18:30:11.322Z,23.10
2019-04-26T18:32:47.724Z,23.10
2019-04-26T18:35:29.834Z,23.20
2019-04-26T18:38:13.492Z,23.20
2019-04-26T18:41:00.003Z,23.10
2019-04-26T18:43:28.313Z,23.10
2019-04-26T18:46:12.809Z,23.00
2019-04-26T18:48:51.442Z,23.00
2019-04-26T18:51:33.411Z,22.90
2019-04-26T18:54:23.795Z,22.90
2019-04-26T18:56:59.198Z,22.80
2019-04-26T18:59:44.771Z,22.80
2019-04-26T19:02:55.397Z,22.70
2019-04-26T19:06:48.895Z,22.80
2019-04-26T19:08:52.256Z,22.70
2019-04-26T19:11:48.479Z,22.60
2019-04-26T19:21:22.753Z,22.50
2019-04-26T19:24:31.163Z,22.40
2019-04-26T19:27:49.978Z,22.30
2019-04-26T19:30:30.432Z,22.30
2019-04-26T19:33:51.636Z,22.20
2019-04-26T19:37:03.360Z,22.20
2019-04-26T19:40:09.013Z,22.20
2019-04-26T19:43:01.930Z,22.10
2019-04-26T19:45:49.810Z,22.10
2019-04-26T19:48:56.685Z,22.00
2019-04-26T19:52:11.736Z,21.90
2019-04-26T19:54:56.439Z,21.90
2019-04-26T19:57:42.512Z,21.80
2019-04-26T20:00:18.332Z,21.90
2019-04-26T20:02:56.927Z,21.90
2019-04-26T20:05:36.356Z,21.90
2019-04-26T20:08:26.145Z,21.90
2019-04-26T20:11:06.849Z,21.90
2019-04-26T20:13:42.666Z,21.80
2019-04-26T20:16:25.759Z,21.80
2019-04-26T20:19:03.834Z,21.80
2019-04-26T20:21:45.435Z,21.70
2019-04-26T20:24:20.390Z,21.60
2019-04-26T20:26:58.949Z,21.60
2019-04-26T20:29:33.860Z,21.50
2019-04-26T20:32:27.881Z,21.50
2019-04-26T20:35:13.450Z,21.50
2019-04-26T20:37:48.601Z,21.50
2019-04-26T20:40:25.599Z,21.40
2019-04-26T20:43:05.330Z,21.30
2019-04-26T20:45:42.540Z,21.20
2019-04-26T20:48:15.592Z,21.20
2019-04-26T20:50:55.296Z,21.20
2019-04-26T20:53:40.019Z,21.10
2019-04-26T20:56:16.129Z,21.10
2019-04-26T20:58:46.996Z,21.10
2019-04-26T21:01:27.845Z,21.20
2019-04-26T21:04:07.286Z,21.20
2019-04-26T21:06:42.138Z,21.20
2019-04-26T21:09:17.630Z,21.10
2019-04-26T21:11:57.186Z,21.00
2019-04-26T21:14:44.460Z,21.00
2019-04-26T21:17:27.786Z,20.90
2019-04-26T21:20:02.163Z,20.90
2019-04-26T21:22:38.100Z,20.90
2019-04-26T21:25:35.693Z,20.90
2019-04-26T21:28:45.991Z,20.80
2019-04-26T21:31:55.759Z,20.80
2019-04-26T21:34:35.999Z,20.70
2019-04-26T21:37:53.983Z,20.70
2019-04-26T21:40:49.689Z,20.70
2019-04-26T21:43:29.393Z,20.70
2019-04-26T21:46:14.293Z,20.60
2019-04-26T21:48:45.396Z,20.70
2019-04-26T21:51:22.944Z,20.60
2019-04-26T21:54:56.383Z,20.60
2019-04-26T21:57:31.919Z,20.60
2019-04-26T22:00:24.914Z,20.70
2019-04-26T22:03:00.379Z,20.60
2019-04-26T22:05:36.338Z,20.60
2019-04-26T22:08:12.887Z,20.50
2019-04-26T22:10:48.079Z,20.50
2019-04-26T22:13:41.511Z,20.40
2019-04-26T22:16:37.366Z,20.50
2019-04-26T22:19:32.457Z,20.40
2019-04-26T22:22:23.222Z,20.40
2019-04-26T22:24:58.270Z,20.40
2019-04-26T22:27:32.854Z,20.30
2019-04-26T22:30:16.801Z,20.20
2019-04-26T22:32:58.091Z,20.30
2019-04-26T22:35:28.943Z,20.20
2019-04-26T22:38:04.183Z,20.20
2019-04-26T22:40:54.704Z,20.30
2019-04-26T22:44:03.769Z,20.20
2019-04-26T22:47:03.497Z,20.10
2019-04-26T22:49:41.744Z,20.00
2019-04-26T22:52:16.452Z,20.00
2019-04-26T22:54:51.055Z,20.00
2019-04-26T22:57:26.238Z,20.20
2019-04-26T23:00:02.208Z,20.10
2019-04-26T23:02:48.459Z,20.00
2019-04-26T23:05:25.592Z,19.90
2019-04-26T23:08:03.214Z,19.90
2019-04-26T23:10:46.269Z,19.90
2019-04-26T23:13:46.092Z,20.00
2019-04-26T23:16:40.350Z,20.00
2019-04-26T23:19:37.732Z,19.90
2019-04-26T23:22:12.937Z,19.90
2019-04-26T23:25:09.918Z,20.00
2019-04-26T23:27:58.289Z,19.90
2019-04-26T23:30:32.639Z,19.80
2019-04-26T23:33:07.247Z,19.80
2019-04-26T23:35:52.987Z,19.70
2019-04-26T23:38:28.433Z,19.70
2019-04-26T23:41:07.252Z,19.70
2019-04-26T23:43:41.794Z,19.70
2019-04-26T23:46:18.808Z,19.70
2019-04-26T23:49:07.551Z,19.70
2019-04-26T23:51:45.672Z,19.70
2019-04-26T23:54:18.266Z,19.60
2019-04-26T23:56:55.759Z,19.60
2019-04-26T23:59:28.286Z,19.60
